Time;durP1;ratioP1;P1;durP2;ratioP2;P2;SDS_P1;SDS_P2;PMS_P1;PMS_P2;Temp;Humidity;BMP_temperature;BMP_pressure;BME280_temperature;BME280_humidity;BME280_pressure;Samples;Min_cycle;Max_cycle;Signal;HPM_P1;HPM_P2
2023/06/26 00:00:42;;;;;;;7.85;4.95;;;17.80;1.00;;;;;;5026492;28;20032;-81
2023/06/26 00:03:08;;;;;;;9.50;6.60;;;18.00;1.00;;;;;;5012590;28;20408;-83
2023/06/26 00:05:37;;;;;;;7.82;5.57;;;18.10;1.00;;;;;;5026128;28;20029;-82
2023/06/26 00:08:04;;;;;;;7.88;5.82;;;18.00;1.00;;;;;;5031163;28;20384;-81
2023/06/26 00:10:30;;;;;;;7.80;5.70;;;18.00;1.00;;;;;;5027640;28;20034;-81
2023/06/26 00:12:56;;;;;;;8.57;6.38;;;17.90;1.00;;;;;;5014393;28;20056;-83
2023/06/26 00:15:22;;;;;;;6.82;5.60;;;17.90;1.00;;;;;;5033196;28;20030;-81
2023/06/26 00:17:49;;;;;;;9.35;6.47;;;17.90;1.00;;;;;;5011754;28;20396;-82
2023/06/26 00:20:16;;;;;;;6.63;5.18;;;17.80;1.00;;;;;;5032319;28;20040;-83
2023/06/26 00:22:42;;;;;;;7.90;5.75;;;17.90;1.00;;;;;;5025586;28;20029;-82
2023/06/26 00:25:08;;;;;;;7.50;6.18;;;18.10;1.00;;;;;;5029329;28;20358;-81
2023/06/26 00:27:34;;;;;;;7.47;6.45;;;18.10;1.00;;;;;;5027894;28;20049;-82
2023/06/26 00:30:01;;;;;;;9.55;6.45;;;18.00;1.00;;;;;;5030669;28;20036;-83
2023/06/26 00:32:27;;;;;;;7.05;6.18;;;17.90;1.00;;;;;;5035152;28;20030;-82
2023/06/26 00:34:53;;;;;;;8.05;6.15;;;17.90;1.00;;;;;;5022469;28;20038;-83
2023/06/26 00:37:21;;;;;;;10.18;6.72;;;17.90;1.00;;;;;;5026224;28;20048;-82
2023/06/26 00:39:47;;;;;;;11.05;6.28;;;17.90;1.00;;;;;;5033570;28;20029;-82
2023/06/26 00:42:13;;;;;;;9.07;6.03;;;17.80;1.00;;;;;;5012769;28;20618;-82
2023/06/26 00:44:39;;;;;;;7.30;5.97;;;17.70;1.00;;;;;;5026246;28;20488;-82
2023/06/26 00:47:06;;;;;;;6.93;5.53;;;17.60;1.00;;;;;;5031016;28;20044;-82
2023/06/26 00:49:32;;;;;;;9.45;6.13;;;17.60;1.00;;;;;;5032420;28;20038;-82
2023/06/26 00:51:59;;;;;;;8.52;6.55;;;17.50;1.00;;;;;;5024011;28;20037;-82
2023/06/26 00:54:25;;;;;;;8.57;6.47;;;17.30;1.10;;;;;;5030562;28;20396;-83
2023/06/26 00:56:52;;;;;;;8.77;6.22;;;17.30;15.10;;;;;;5028606;28;20037;-83
2023/06/26 00:59:18;;;;;;;7.20;6.15;;;17.40;4.00;;;;;;5030632;28;20070;-82
2023/06/26 01:01:44;;;;;;;9.05;6.20;;;17.20;11.90;;;;;;4951552;29;20048;-82
2023/06/26 01:04:17;;;;;;;8.70;7.10;;;17.00;24.50;;;;;;4949382;29;20046;-82
2023/06/26 01:06:51;;;;;;;8.35;6.75;;;16.90;35.90;;;;;;5013513;28;20054;-82
2023/06/26 01:09:19;;;;;;;10.38;7.05;;;16.90;62.50;;;;;;4947138;29;20046;-81
2023/06/26 01:11:46;;;;;;;7.38;6.47;;;16.80;56.30;;;;;;5018660;28;20043;-84
2023/06/26 01:14:12;;;;;;;8.90;6.55;;;16.70;67.00;;;;;;5021921;28;20039;-80
2023/06/26 01:16:40;;;;;;;8.32;6.55;;;16.60;83.70;;;;;;5010223;28;20043;-81
2023/06/26 01:19:13;;;;;;;10.50;6.40;;;16.50;94.10;;;;;;5027292;28;20051;-83
2023/06/26 01:21:44;;;;;;;7.68;6.18;;;16.40;99.50;;;;;;4953297;29;20035;-82
2023/06/26 01:24:20;;;;;;;9.45;6.63;;;16.40;99.90;;;;;;4954827;29;20042;-83
2023/06/26 01:26:50;;;;;;;9.85;5.57;;;16.40;99.90;;;;;;5023444;28;20052;-83
2023/06/26 01:29:19;;;;;;;9.30;6.45;;;16.30;99.90;;;;;;5058122;28;20055;-83
2023/06/26 01:31:49;;;;;;;11.88;7.32;;;16.30;99.90;;;;;;4958212;29;20031;-83
2023/06/26 01:34:18;;;;;;;9.35;7.60;;;16.30;99.90;;;;;;4960005;29;20035;-82
2023/06/26 01:36:48;;;;;;;10.18;6.63;;;16.20;99.90;;;;;;4955294;29;20035;-82
2023/06/26 01:39:16;;;;;;;9.70;7.53;;;16.20;99.90;;;;;;5038813;28;20047;-82
2023/06/26 01:41:43;;;;;;;9.48;6.00;;;16.10;99.90;;;;;;4956621;29;20291;-82
2023/06/26 01:44:29;;;;;;;10.10;5.90;;;16.10;99.90;;;;;;5020672;28;20047;-82
2023/06/26 01:47:04;;;;;;;9.85;7.13;;;16.20;99.90;;;;;;4948528;29;20031;-81
2023/06/26 01:49:48;;;;;;;9.00;6.82;;;16.20;99.90;;;;;;5019766;28;20042;-84
2023/06/26 01:52:36;;;;;;;9.43;7.03;;;16.20;99.90;;;;;;5035411;28;20043;-81
2023/06/26 01:55:18;;;;;;;9.23;7.40;;;16.20;99.90;;;;;;4951789;29;20054;-81
2023/06/26 01:57:47;;;;;;;10.05;8.05;;;16.30;99.90;;;;;;4968198;28;20057;-81
2023/06/26 02:00:17;;;;;;;10.70;6.85;;;16.30;99.90;;;;;;5022671;28;20041;-82
2023/06/26 02:02:44;;;;;;;9.10;7.60;;;16.30;99.90;;;;;;5049400;28;20060;-82
2023/06/26 02:05:13;;;;;;;9.05;6.65;;;16.30;99.90;;;;;;5043196;28;20534;-82
2023/06/26 02:07:40;;;;;;;9.48;7.38;;;16.40;99.90;;;;;;5043538;28;20033;-81
2023/06/26 02:10:07;;;;;;;9.48;7.30;;;16.50;99.90;;;;;;5031187;28;20463;-83
2023/06/26 02:12:35;;;;;;;8.68;6.65;;;16.50;99.90;;;;;;5043561;28;20040;-83
2023/06/26 02:15:02;;;;;;;10.20;6.93;;;16.50;99.90;;;;;;5064739;28;20403;-83
2023/06/26 02:17:28;;;;;;;9.93;7.28;;;16.40;99.90;;;;;;5046027;28;20052;-82
2023/06/26 02:19:55;;;;;;;9.88;7.47;;;16.20;99.90;;;;;;5043927;28;20041;-82
2023/06/26 02:22:21;;;;;;;10.10;7.43;;;16.20;99.90;;;;;;5030373;28;20828;-82
2023/06/26 02:24:48;;;;;;;10.60;7.72;;;16.10;99.90;;;;;;5049134;28;20064;-82
2023/06/26 02:27:14;;;;;;;8.75;6.30;;;16.10;99.90;;;;;;5044418;28;20052;-82
2023/06/26 02:29:42;;;;;;;11.30;6.85;;;16.20;99.90;;;;;;5048662;28;20040;-83
2023/06/26 02:32:08;;;;;;;10.25;6.20;;;16.30;99.90;;;;;;5029323;28;20052;-82
2023/06/26 02:34:35;;;;;;;12.43;6.82;;;16.40;99.90;;;;;;5062157;28;20037;-84
2023/06/26 02:37:01;;;;;;;8.60;6.90;;;16.40;99.90;;;;;;5033157;28;20037;-83
2023/06/26 02:39:28;;;;;;;9.50;7.45;;;16.40;99.90;;;;;;5046604;28;20048;-82
2023/06/26 02:41:57;;;;;;;8.68;6.75;;;16.20;99.90;;;;;;5059694;28;20045;-82
2023/06/26 02:44:24;;;;;;;8.40;7.47;;;16.10;99.90;;;;;;5031618;28;20482;-82
2023/06/26 02:46:50;;;;;;;9.60;7.15;;;16.00;99.90;;;;;;5048348;28;20041;-82
2023/06/26 02:49:16;;;;;;;8.93;7.05;;;15.90;99.90;;;;;;5065129;28;20045;-84
2023/06/26 02:51:44;;;;;;;10.60;8.02;;;15.80;99.90;;;;;;5059138;28;20049;-83
2023/06/26 02:54:19;;;;;;;11.23;7.85;;;15.80;99.90;;;;;;5064011;28;20125;-83
2023/06/26 02:56:49;;;;;;;9.35;6.97;;;15.70;99.90;;;;;;5058671;28;20045;-83
2023/06/26 02:59:20;;;;;;;11.13;7.18;;;15.70;99.90;;;;;;5014095;28;20051;-82
2023/06/26 03:01:47;;;;;;;8.73;7.32;;;15.70;99.90;;;;;;5027624;28;20507;-82
2023/06/26 03:04:15;;;;;;;11.00;7.63;;;15.70;99.90;;;;;;5045025;28;20039;-82
2023/06/26 03:06:41;;;;;;;9.45;7.38;;;15.60;99.90;;;;;;5030437;28;20064;-82
2023/06/26 03:09:07;;;;;;;8.93;6.47;;;15.60;99.90;;;;;;5056242;28;20045;-82
2023/06/26 03:11:33;;;;;;;8.88;7.35;;;15.60;99.90;;;;;;5062036;28;20072;-84
2023/06/26 03:14:00;;;;;;;9.55;7.20;;;15.60;99.90;;;;;;5059253;28;20476;-83
2023/06/26 03:16:26;;;;;;;12.57;7.53;;;15.70;99.90;;;;;;5021736;28;20037;-83
2023/06/26 03:18:54;;;;;;;8.13;6.95;;;15.70;99.90;;;;;;5061951;28;20389;-84
2023/06/26 03:21:20;;;;;;;9.27;7.28;;;15.80;99.90;;;;;;5060250;28;20045;-83
2023/06/26 03:23:46;;;;;;;7.75;6.03;;;15.70;99.90;;;;;;5062196;28;20041;-82
2023/06/26 03:26:14;;;;;;;13.63;7.22;;;15.70;99.90;;;;;;5047324;28;20045;-82
2023/06/26 03:28:42;;;;;;;11.73;7.20;;;15.70;99.90;;;;;;5037468;28;20044;-82
2023/06/26 03:31:09;;;;;;;9.48;6.95;;;15.70;99.90;;;;;;5048540;28;20060;-83
2023/06/26 03:33:35;;;;;;;9.25;7.57;;;15.60;99.90;;;;;;5047202;28;20487;-83
2023/06/26 03:36:02;;;;;;;9.40;6.75;;;15.70;99.90;;;;;;5052295;28;20029;-85
2023/06/26 03:38:28;;;;;;;9.52;7.15;;;15.70;99.90;;;;;;5066636;28;20068;-83
2023/06/26 03:40:58;;;;;;;9.60;7.80;;;15.70;99.90;;;;;;5048689;28;20051;-83
2023/06/26 03:43:24;;;;;;;11.48;6.85;;;15.80;99.90;;;;;;5050544;28;20025;-83
2023/06/26 03:46:19;;;;;;;10.82;7.10;;;15.90;99.90;;;;;;5040993;28;20041;-83
2023/06/26 03:48:47;;;;;;;9.15;6.82;;;16.00;99.90;;;;;;5052241;28;20052;-84
2023/06/26 03:51:14;;;;;;;10.38;6.93;;;16.10;99.90;;;;;;5061256;28;20063;-83
2023/06/26 03:53:41;;;;;;;9.15;7.15;;;16.20;99.90;;;;;;5064679;28;20491;-83
2023/06/26 03:56:07;;;;;;;12.73;6.60;;;16.30;99.90;;;;;;5051396;28;20040;-84
2023/06/26 03:58:33;;;;;;;12.55;7.78;;;16.40;99.90;;;;;;5033460;28;20041;-83
2023/06/26 04:01:02;;;;;;;8.05;6.45;;;16.50;99.90;;;;;;5030781;28;20048;-83
2023/06/26 04:03:29;;;;;;;8.65;7.38;;;16.70;99.90;;;;;;5043725;28;20064;-83
2023/06/26 04:05:55;;;;;;;8.45;6.30;;;16.90;99.90;;;;;;5050995;28;20044;-83
2023/06/26 04:08:21;;;;;;;9.95;6.60;;;16.90;99.90;;;;;;5052438;28;20064;-83
2023/06/26 04:10:47;;;;;;;9.07;6.70;;;17.10;99.90;;;;;;5044600;28;20042;-83
2023/06/26 04:13:14;;;;;;;11.60;7.00;;;17.20;99.90;;;;;;5065802;28;20029;-83
2023/06/26 04:15:40;;;;;;;9.75;7.80;;;17.30;99.90;;;;;;5049660;28;20036;-82
2023/06/26 04:18:06;;;;;;;8.57;6.57;;;17.60;99.90;;;;;;5034062;28;20041;-83
2023/06/26 04:20:34;;;;;;;8.57;6.20;;;17.90;98.80;;;;;;5050768;28;20036;-83
2023/06/26 04:23:01;;;;;;;7.82;6.25;;;18.60;49.30;;;;;;5045557;28;20033;-84
2023/06/26 04:25:29;;;;;;;7.60;5.82;;;19.40;1.00;;;;;;5064974;28;20029;-83
2023/06/26 04:27:55;;;;;;;7.93;5.40;;;20.10;1.00;;;;;;5047479;28;20041;-83
2023/06/26 04:30:21;;;;;;;6.65;4.82;;;20.90;1.00;;;;;;5046999;28;20060;-81
2023/06/26 04:32:48;;;;;;;7.60;5.80;;;21.50;1.00;;;;;;5047285;28;20356;-84
2023/06/26 04:35:14;;;;;;;7.32;5.20;;;22.00;1.00;;;;;;5042643;28;20059;-82
2023/06/26 04:37:40;;;;;;;7.70;5.55;;;22.50;99.90;;;;;;5050281;28;20028;-81
2023/06/26 04:40:09;;;;;;;8.07;5.90;;;23.20;99.90;;;;;;5048254;28;20045;-84
2023/06/26 04:42:35;;;;;;;7.57;5.40;;;23.80;99.90;;;;;;5047527;28;20040;-83
2023/06/26 04:45:02;;;;;;;9.77;5.50;;;24.20;99.90;;;;;;5046097;28;20427;-81
2023/06/26 04:47:28;;;;;;;8.20;5.82;;;24.70;99.90;;;;;;5045273;28;20426;-83
2023/06/26 04:49:55;;;;;;;6.57;5.22;;;25.00;99.90;;;;;;5049041;28;20056;-82
2023/06/26 04:52:21;;;;;;;7.55;6.03;;;25.30;99.90;;;;;;5060041;28;20045;-82
2023/06/26 04:54:47;;;;;;;7.05;5.35;;;25.40;99.90;;;;;;5055742;28;20033;-83
2023/06/26 04:57:14;;;;;;;6.63;5.72;;;25.20;99.90;;;;;;5044620;28;20472;-82
2023/06/26 04:59:40;;;;;;;7.18;5.35;;;24.90;99.90;;;;;;5040411;28;20068;-82
2023/06/26 05:02:07;;;;;;;7.20;5.70;;;25.40;99.90;;;;;;5032506;28;20044;-82
2023/06/26 05:04:33;;;;;;;6.10;5.45;;;25.50;99.90;;;;;;5044018;28;20025;-82
2023/06/26 05:06:59;;;;;;;7.75;6.20;;;25.60;99.90;;;;;;5049417;28;20026;-82
2023/06/26 05:09:25;;;;;;;7.28;5.85;;;25.80;99.90;;;;;;5042758;28;20188;-80
2023/06/26 05:11:51;;;;;;;6.40;5.75;;;26.40;99.90;;;;;;5064728;28;20045;-83
2023/06/26 05:14:18;;;;;;;9.57;6.75;;;26.50;99.90;;;;;;5043950;28;20060;-83
2023/06/26 05:16:44;;;;;;;7.15;6.32;;;26.40;99.90;;;;;;5048825;28;20040;-82
2023/06/26 05:19:10;;;;;;;7.55;6.13;;;26.80;99.90;;;;;;5043665;28;20025;-81
2023/06/26 05:21:37;;;;;;;6.68;6.07;;;27.20;99.90;;;;;;5030482;28;20041;-84
2023/06/26 05:24:05;;;;;;;7.32;6.13;;;27.60;99.90;;;;;;5029605;28;20064;-83
2023/06/26 05:26:31;;;;;;;12.60;5.53;;;27.60;99.90;;;;;;5025499;28;20476;-82
2023/06/26 05:28:57;;;;;;;6.70;5.65;;;27.40;99.90;;;;;;5048054;28;20044;-81
2023/06/26 05:31:24;;;;;;;8.38;6.25;;;27.10;99.90;;;;;;5047792;28;20464;-82
2023/06/26 05:33:53;;;;;;;8.02;5.70;;;27.30;99.90;;;;;;5048710;28;20487;-82
2023/06/26 05:36:21;;;;;;;8.23;5.63;;;27.70;99.90;;;;;;5041099;28;20029;-85
2023/06/26 05:38:50;;;;;;;7.28;6.50;;;28.30;99.90;;;;;;5047629;28;20044;-86
2023/06/26 05:41:16;;;;;;;6.47;5.35;;;28.90;99.90;;;;;;5048848;28;20033;-84
2023/06/26 05:43:42;;;;;;;6.43;5.25;;;28.90;99.90;;;;;;5049639;28;20043;-84
2023/06/26 05:46:08;;;;;;;8.23;6.00;;;28.80;99.90;;;;;;5044768;28;20036;-85
2023/06/26 05:48:34;;;;;;;7.22;5.75;;;28.80;99.90;;;;;;5059649;28;20045;-85
2023/06/26 05:51:01;;;;;;;8.18;5.68;;;28.60;99.90;;;;;;5045737;28;20036;-86
2023/06/26 05:53:28;;;;;;;6.45;5.63;;;28.50;99.90;;;;;;5061219;28;20040;-85
2023/06/26 05:55:54;;;;;;;8.10;5.45;;;27.90;99.90;;;;;;5045035;28;20037;-85
2023/06/26 05:58:23;;;;;;;6.75;6.05;;;28.30;99.90;;;;;;5047682;28;20056;-84
2023/06/26 06:00:49;;;;;;;10.27;6.35;;;28.20;99.90;;;;;;5045320;28;20026;-84
2023/06/26 06:03:15;;;;;;;8.23;5.93;;;27.90;99.90;;;;;;5031163;28;20033;-84
2023/06/26 06:05:43;;;;;;;7.05;6.32;;;27.80;99.90;;;;;;5042335;28;20069;-84
2023/06/26 06:08:09;;;;;;;7.20;5.57;;;28.60;99.90;;;;;;5032171;28;20041;-84
2023/06/26 06:10:35;;;;;;;9.80;6.35;;;29.50;99.90;;;;;;5063790;28;20033;-83
2023/06/26 06:13:01;;;;;;;8.13;5.72;;;29.80;95.40;;;;;;5047393;28;20040;-83
2023/06/26 06:15:28;;;;;;;6.18;5.30;;;29.70;96.50;;;;;;5042562;28;20047;-85
2023/06/26 06:17:54;;;;;;;8.18;6.22;;;29.60;97.80;;;;;;5027969;28;20029;-83
2023/06/26 06:20:21;;;;;;;6.50;5.80;;;30.30;94.00;;;;;;5043332;28;20048;-82
2023/06/26 06:22:48;;;;;;;6.63;5.88;;;30.30;90.80;;;;;;5041438;28;20033;-83
2023/06/26 06:25:15;;;;;;;11.65;5.75;;;30.10;94.30;;;;;;5029822;28;20245;-82
2023/06/26 06:27:41;;;;;;;8.35;6.05;;;30.00;95.20;;;;;;5047151;28;20028;-84
2023/06/26 06:30:08;;;;;;;8.60;6.35;;;29.40;93.50;;;;;;5046084;28;20036;-83
2023/06/26 06:32:35;;;;;;;8.27;6.10;;;29.50;96.70;;;;;;5043112;28;20040;-82
2023/06/26 06:35:09;;;;;;;6.88;5.53;;;30.40;85.20;;;;;;5046127;28;20047;-82
2023/06/26 06:37:37;;;;;;;8.40;7.10;;;30.40;87.90;;;;;;5047686;28;20486;-82
2023/06/26 06:40:05;;;;;;;6.80;6.07;;;31.30;83.00;;;;;;5027285;28;20043;-82
2023/06/26 06:42:33;;;;;;;6.43;5.63;;;31.10;75.80;;;;;;5046473;28;20025;-83
2023/06/26 06:45:01;;;;;;;8.02;6.03;;;31.10;62.30;;;;;;5052264;28;20036;-82
2023/06/26 06:47:28;;;;;;;9.13;5.50;;;31.40;68.70;;;;;;5057725;28;20029;-84
2023/06/26 06:49:54;;;;;;;7.40;6.15;;;31.90;50.70;;;;;;5044183;28;20052;-83
2023/06/26 06:52:20;;;;;;;7.18;5.68;;;32.00;43.30;;;;;;5029060;28;20411;-82
2023/06/26 06:55:05;;;;;;;7.63;5.90;;;32.00;38.70;;;;;;5046665;28;20021;-81
2023/06/26 06:57:35;;;;;;;7.40;5.90;;;32.10;33.20;;;;;;5029830;28;20038;-82
2023/06/26 07:00:14;;;;;;;8.40;5.25;;;32.30;32.20;;;;;;5048173;28;20047;-82
2023/06/26 07:02:43;;;;;;;6.95;5.40;;;32.80;36.20;;;;;;5046841;28;20476;-82
2023/06/26 07:05:10;;;;;;;6.80;5.32;;;33.50;21.80;;;;;;5042293;28;20038;-84
2023/06/26 07:07:37;;;;;;;5.80;5.15;;;33.90;25.60;;;;;;5031543;28;20060;-81
2023/06/26 07:10:09;;;;;;;11.60;6.00;;;34.20;7.20;;;;;;5046276;28;20037;-81
2023/06/26 07:12:35;;;;;;;8.30;5.78;;;33.60;13.10;;;;;;5045536;28;20049;-82
2023/06/26 07:15:04;;;;;;;8.63;5.72;;;33.50;14.80;;;;;;5044960;28;20028;-81
2023/06/26 07:17:34;;;;;;;7.07;5.15;;;33.60;11.70;;;;;;5042707;28;20037;-82
2023/06/26 07:20:05;;;;;;;9.05;5.57;;;33.40;11.80;;;;;;5024217;28;20033;-83
2023/06/26 07:22:31;;;;;;;8.05;5.80;;;31.40;30.60;;;;;;5045516;28;20033;-85
2023/06/26 07:24:57;;;;;;;9.10;5.45;;;31.00;44.50;;;;;;5044448;28;20033;-83
2023/06/26 07:27:23;;;;;;;7.53;5.70;;;31.80;46.60;;;;;;5044854;28;20029;-81
2023/06/26 07:29:50;;;;;;;10.48;5.82;;;32.50;36.50;;;;;;5039313;28;20041;-82
2023/06/26 07:32:16;;;;;;;7.75;5.38;;;31.60;36.70;;;;;;5056731;28;20034;-82
2023/06/26 07:34:42;;;;;;;7.13;4.97;;;31.00;53.70;;;;;;5046444;28;20048;-82
2023/06/26 07:37:10;;;;;;;7.43;5.70;;;31.30;43.90;;;;;;5043946;28;20029;-82
2023/06/26 07:39:36;;;;;;;6.70;4.90;;;31.70;56.50;;;;;;5034554;28;20041;-82
2023/06/26 07:42:03;;;;;;;5.90;5.30;;;32.60;38.40;;;;;;5049638;28;20072;-84
2023/06/26 07:44:29;;;;;;;6.35;5.75;;;33.00;27.10;;;;;;5030554;28;20041;-84
2023/06/26 07:46:55;;;;;;;8.45;5.07;;;33.30;24.00;;;;;;5044208;28;20035;-81
2023/06/26 07:49:21;;;;;;;10.20;5.78;;;33.10;20.50;;;;;;5038758;28;20061;-83
2023/06/26 07:51:48;;;;;;;5.97;5.38;;;32.80;27.50;;;;;;5059700;28;20041;-82
2023/06/26 07:54:14;;;;;;;6.05;5.20;;;33.30;16.90;;;;;;5062189;28;20041;-83
2023/06/26 07:57:00;;;;;;;8.13;5.90;;;33.30;20.90;;;;;;5045520;28;20432;-83
2023/06/26 07:59:28;;;;;;;6.45;5.85;;;32.60;38.50;;;;;;5048292;28;20045;-83
2023/06/26 08:01:56;;;;;;;8.07;5.38;;;32.80;31.50;;;;;;5047308;28;20036;-82
2023/06/26 08:04:24;;;;;;;5.53;5.03;;;33.10;25.00;;;;;;5046933;28;20387;-84
2023/06/26 08:06:52;;;;;;;7.60;4.83;;;32.50;32.70;;;;;;5048030;28;20032;-83
2023/06/26 08:09:19;;;;;;;6.45;5.47;;;32.40;40.30;;;;;;5046263;28;20296;-84
2023/06/26 08:11:46;;;;;;;7.88;6.28;;;32.20;47.90;;;;;;5047685;28;20029;-83
2023/06/26 08:14:13;;;;;;;6.47;5.47;;;31.70;60.00;;;;;;5046714;28;20041;-85
2023/06/26 08:16:40;;;;;;;9.23;6.68;;;30.80;58.90;;;;;;5050355;28;20052;-85
2023/06/26 08:19:07;;;;;;;6.22;5.63;;;30.20;71.40;;;;;;5051967;28;20025;-82
2023/06/26 08:21:33;;;;;;;8.43;5.82;;;32.00;56.30;;;;;;5051242;28;20036;-83
2023/06/26 08:24:00;;;;;;;6.60;5.50;;;32.50;48.60;;;;;;5052181;28;20043;-84
2023/06/26 08:26:26;;;;;;;8.15;4.97;;;33.00;33.70;;;;;;5048731;28;20396;-83
2023/06/26 08:28:52;;;;;;;6.55;5.18;;;33.60;25.40;;;;;;5053050;28;20045;-83
2023/06/26 08:31:19;;;;;;;6.82;5.72;;;33.50;40.00;;;;;;5050092;28;20029;-84
2023/06/26 08:33:45;;;;;;;7.13;5.45;;;32.60;39.20;;;;;;5050436;28;20032;-81
2023/06/26 08:36:11;;;;;;;7.80;5.88;;;32.70;39.60;;;;;;5046589;28;20036;-84
2023/06/26 08:38:40;;;;;;;6.90;5.22;;;32.90;29.10;;;;;;5048862;28;20055;-81
2023/06/26 08:41:07;;;;;;;8.15;5.25;;;33.00;27.10;;;;;;5047497;28;20041;-82
2023/06/26 08:43:34;;;;;;;9.50;5.03;;;33.50;24.70;;;;;;5028370;28;20433;-83
2023/06/26 08:46:00;;;;;;;7.70;5.28;;;33.40;9.30;;;;;;5047127;28;20060;-83
2023/06/26 08:48:29;;;;;;;5.40;4.05;;;32.70;18.40;;;;;;5048168;28;20092;-85
2023/06/26 08:50:58;;;;;;;;;;;32.40;26.40;;;;;;5032653;28;20040;-87
2023/06/26 08:53:48;;;;;;;10.38;4.65;;;31.50;46.40;;;;;;5032203;28;19913;-85
2023/06/26 08:56:17;;;;;;;6.18;4.50;;;31.60;34.50;;;;;;5042004;28;20029;-84
2023/06/26 08:58:45;;;;;;;8.50;4.90;;;30.80;50.10;;;;;;5062507;28;20033;-85
2023/06/26 09:01:12;;;;;;;6.70;4.70;;;31.90;36.90;;;;;;5047525;28;20047;-83
2023/06/26 09:03:38;;;;;;;5.40;4.90;;;32.20;27.40;;;;;;5047264;28;20029;-84
2023/06/26 09:06:05;;;;;;;7.18;3.83;;;31.10;49.80;;;;;;5043031;28;20032;-89
2023/06/26 09:08:31;;;;;;;6.63;5.30;;;31.00;65.00;;;;;;5060723;28;20372;-86
2023/06/26 09:10:57;;;;;;;9.35;4.70;;;30.20;57.80;;;;;;5050420;28;20033;-85
2023/06/26 09:13:23;;;;;;;5.80;4.35;;;30.50;58.50;;;;;;5044696;28;20567;-85
2023/06/26 09:15:53;;;;;;;5.45;4.43;;;30.30;58.50;;;;;;5033233;28;20041;-85
2023/06/26 09:18:21;;;;;;;6.00;4.03;;;30.20;58.90;;;;;;5048511;28;20033;-85
2023/06/26 09:20:48;;;;;;;9.05;4.45;;;30.40;52.70;;;;;;5034855;28;20055;-82
2023/06/26 09:23:14;;;;;;;7.07;4.55;;;29.80;74.80;;;;;;5028679;28;20033;-83
2023/06/26 09:25:41;;;;;;;7.97;4.85;;;30.40;75.00;;;;;;5041959;28;20041;-87
2023/06/26 09:28:08;;;;;;;5.80;4.82;;;30.70;50.20;;;;;;5033244;28;20040;-84
2023/06/26 09:30:36;;;;;;;6.78;4.30;;;30.30;55.40;;;;;;5044584;28;20052;-84
2023/06/26 09:33:17;;;;;;;7.50;4.50;;;30.40;57.70;;;;;;5031674;28;20032;-86
2023/06/26 09:35:44;;;;;;;6.45;5.05;;;30.70;48.30;;;;;;5047423;28;20367;-83
2023/06/26 09:38:11;;;;;;;6.75;4.28;;;30.70;44.10;;;;;;5035292;28;20029;-82
2023/06/26 09:40:38;;;;;;;7.03;4.72;;;30.80;43.90;;;;;;5048453;28;20037;-83
2023/06/26 09:43:05;;;;;;;8.23;4.60;;;31.10;45.20;;;;;;5048958;28;20041;-83
2023/06/26 09:45:38;;;;;;;6.90;4.65;;;31.40;39.00;;;;;;5045189;28;20036;-84
2023/06/26 09:48:05;;;;;;;7.40;4.10;;;31.70;32.20;;;;;;5047907;28;20048;-84
2023/06/26 09:50:34;;;;;;;6.32;4.57;;;31.50;31.30;;;;;;5045482;28;20468;-83
2023/06/26 09:53:20;;;;;;;7.50;4.97;;;31.20;36.70;;;;;;5045852;28;20049;-84
2023/06/26 09:55:46;;;;;;;9.20;5.53;;;30.60;57.00;;;;;;5044367;28;20496;-83
2023/06/26 09:58:14;;;;;;;7.60;4.68;;;30.60;49.40;;;;;;5043809;28;20487;-83
2023/06/26 10:00:44;;;;;;;7.18;4.22;;;30.70;53.10;;;;;;5042084;28;20476;-86
2023/06/26 10:03:12;;;;;;;5.00;4.47;;;31.40;52.20;;;;;;5033800;28;20052;-84
2023/06/26 10:05:39;;;;;;;6.45;4.80;;;31.00;51.00;;;;;;5039870;28;20029;-86
2023/06/26 10:08:06;;;;;;;7.65;5.43;;;30.20;65.80;;;;;;5033741;28;20529;-87
2023/06/26 10:10:37;;;;;;;7.68;5.20;;;29.70;81.70;;;;;;5056600;28;20029;-87
2023/06/26 10:13:27;;;;;;;6.80;5.18;;;29.70;82.20;;;;;;5031903;28;20037;-80
2023/06/26 10:15:54;;;;;;;6.55;5.53;;;29.30;88.40;;;;;;5046095;28;20278;-81
2023/06/26 10:18:24;;;;;;;6.78;4.55;;;29.40;91.40;;;;;;5042692;28;20032;-81
2023/06/26 10:20:55;;;;;;;6.25;4.63;;;29.80;86.30;;;;;;5046439;28;20064;-81
2023/06/26 10:23:23;;;;;;;8.70;5.75;;;30.60;68.80;;;;;;5044528;28;20037;-78
2023/06/26 10:25:51;;;;;;;6.10;5.00;;;30.10;71.20;;;;;;5042073;28;20479;-80
2023/06/26 10:28:20;;;;;;;5.22;4.47;;;29.60;91.70;;;;;;5044949;28;20029;-81
2023/06/26 10:30:49;;;;;;;10.77;4.47;;;30.00;83.90;;;;;;5046428;28;20037;-80
2023/06/26 10:33:19;;;;;;;7.10;5.13;;;30.10;88.80;;;;;;5060437;28;20056;-79
2023/06/26 10:35:45;;;;;;;8.10;5.05;;;30.20;77.80;;;;;;5045520;28;20045;-80
2023/06/26 10:38:12;;;;;;;6.38;4.53;;;30.20;81.20;;;;;;5042049;28;20040;-81
2023/06/26 10:40:44;;;;;;;6.38;4.90;;;29.80;91.10;;;;;;5046362;28;20033;-80
2023/06/26 10:43:15;;;;;;;6.78;5.43;;;29.60;95.30;;;;;;5048167;28;20037;-79
2023/06/26 10:45:46;;;;;;;5.72;4.50;;;29.90;95.70;;;;;;5045444;28;20033;-84
2023/06/26 10:48:15;;;;;;;6.25;5.20;;;29.80;90.30;;;;;;5049347;28;20033;-88
2023/06/26 10:50:41;;;;;;;6.05;4.70;;;29.50;94.30;;;;;;5048838;28;20393;-84
2023/06/26 10:53:21;;;;;;;5.70;4.80;;;29.40;95.80;;;;;;5046893;28;20380;-82
2023/06/26 10:56:00;;;;;;;7.10;5.50;;;29.60;94.60;;;;;;5045541;28;20037;-86
2023/06/26 10:58:40;;;;;;;10.10;5.50;;;29.50;92.70;;;;;;5044836;28;20052;-81
2023/06/26 11:01:15;;;;;;;9.38;5.13;;;29.30;99.00;;;;;;5045980;28;20052;-83
2023/06/26 11:03:45;;;;;;;9.77;4.95;;;29.10;99.10;;;;;;5041221;28;20033;-82
2023/06/26 11:06:13;;;;;;;6.63;5.13;;;29.50;98.90;;;;;;5043643;28;20037;-80
2023/06/26 11:08:55;;;;;;;8.13;5.90;;;29.80;98.60;;;;;;5041483;28;20037;-79
2023/06/26 11:11:42;;;;;;;6.97;5.43;;;30.10;94.70;;;;;;5044419;28;20053;-80
2023/06/26 11:14:09;;;;;;;5.95;5.07;;;30.30;92.90;;;;;;5040599;28;20781;-80
2023/06/26 11:16:36;;;;;;;7.18;5.55;;;30.80;83.60;;;;;;5046872;28;20021;-80
2023/06/26 11:19:02;;;;;;;7.95;5.53;;;30.90;73.70;;;;;;5049160;28;20037;-88
2023/06/26 11:21:29;;;;;;;6.18;5.07;;;30.80;81.50;;;;;;5046508;28;20025;-79
2023/06/26 11:24:00;;;;;;;7.40;5.07;;;30.40;85.40;;;;;;5047274;28;20056;-79
2023/06/26 11:26:26;;;;;;;6.40;5.35;;;30.80;91.60;;;;;;5045438;28;20041;-80
2023/06/26 11:28:55;;;;;;;8.90;4.80;;;31.00;77.40;;;;;;5045531;28;20029;-81
2023/06/26 11:31:30;;;;;;;7.03;4.95;;;31.20;78.70;;;;;;5043962;28;20029;-82
2023/06/26 11:33:58;;;;;;;8.35;5.00;;;30.60;77.70;;;;;;5046894;28;20040;-82
2023/06/26 11:36:26;;;;;;;6.63;4.68;;;30.30;87.70;;;;;;5045148;28;20132;-80
2023/06/26 11:38:56;;;;;;;5.30;4.32;;;30.30;92.00;;;;;;5048471;28;20036;-80
2023/06/26 11:41:29;;;;;;;5.57;4.30;;;30.70;84.70;;;;;;5046631;28;20387;-81
2023/06/26 11:43:56;;;;;;;7.55;4.38;;;31.40;68.90;;;;;;5046339;28;20033;-82
2023/06/26 11:46:22;;;;;;;7.43;4.88;;;31.80;49.50;;;;;;5046655;28;20044;-80
2023/06/26 11:48:49;;;;;;;5.95;4.03;;;31.40;43.20;;;;;;5047713;28;20032;-82
2023/06/26 11:51:16;;;;;;;4.70;4.20;;;31.30;47.00;;;;;;5050256;28;20498;-84
2023/06/26 11:53:44;;;;;;;6.68;3.15;;;31.40;39.70;;;;;;5032709;28;20927;-83
2023/06/26 11:56:12;;;;;;;12.02;3.90;;;30.90;41.90;;;;;;5051757;28;20036;-81
2023/06/26 11:59:02;;;;;;;5.13;3.63;;;30.80;49.40;;;;;;5051153;28;20283;-86
2023/06/26 12:01:34;;;;;;;6.75;3.65;;;31.00;28.20;;;;;;5054288;28;20424;-82
2023/06/26 12:04:04;;;;;;;5.57;3.72;;;31.40;36.50;;;;;;5032495;28;20052;-81
2023/06/26 12:06:33;;;;;;;5.65;3.95;;;31.60;24.80;;;;;;5053357;28;20044;-82
2023/06/26 12:09:03;;;;;;;6.78;3.63;;;30.90;31.90;;;;;;5050466;28;20037;-83
2023/06/26 12:11:30;;;;;;;5.30;3.92;;;30.60;28.80;;;;;;5048051;28;20033;-81
2023/06/26 12:13:57;;;;;;;5.32;3.55;;;29.70;31.60;;;;;;5046944;28;20037;-89
2023/06/26 12:16:23;;;;;;;11.05;4.18;;;29.70;37.50;;;;;;5048744;28;20041;-81
2023/06/26 12:18:49;;;;;;;5.30;4.25;;;30.20;30.70;;;;;;5050206;28;20037;-85
2023/06/26 12:21:46;;;;;;;4.30;3.33;;;30.40;26.40;;;;;;5049794;28;20032;-84
2023/06/26 12:24:18;;;;;;;8.55;4.50;;;30.70;13.80;;;;;;5022063;28;20049;-83
2023/06/26 12:26:46;;;;;;;6.75;4.18;;;31.10;14.20;;;;;;5051106;28;20037;-83
2023/06/26 12:29:14;;;;;;;8.93;4.45;;;31.00;4.50;;;;;;5052513;28;20037;-85
2023/06/26 12:31:42;;;;;;;5.35;3.95;;;30.90;1.00;;;;;;5049633;28;20456;-84
2023/06/26 12:34:11;;;;;;;6.28;3.65;;;30.70;1.00;;;;;;5048276;28;20032;-86
2023/06/26 12:36:49;;;;;;;6.18;4.72;;;31.00;1.00;;;;;;5050167;28;20032;-87
2023/06/26 12:39:20;;;;;;;7.38;4.63;;;31.20;1.00;;;;;;5048091;28;20037;-85
2023/06/26 12:41:54;;;;;;;7.88;4.95;;;31.30;1.00;;;;;;5050607;28;20052;-88
2023/06/26 12:44:29;;;;;;;10.30;5.18;;;31.40;1.00;;;;;;5048962;28;20033;-84
2023/06/26 12:47:01;;;;;;;5.50;4.10;;;31.20;1.00;;;;;;5066817;28;20103;-85
2023/06/26 12:49:32;;;;;;;6.18;5.00;;;31.00;1.00;;;;;;5064949;28;20055;-81
2023/06/26 12:52:00;;;;;;;8.02;5.10;;;30.80;1.00;;;;;;5052311;28;20052;-88
2023/06/26 12:54:27;;;;;;;6.75;5.38;;;30.70;1.00;;;;;;5035012;28;20048;-81